Kakushin Maru — JM6667 — position and weather

sailwx.info

Track history (hours):
 
Tides and Currents Weather Stations Pressure Air Temp Water Temp Dewpoint Dewpoint Depression Visibility Wind Speed Wind Dir Waves Ship Positions

Kakushin Maru

Last reported at 2018-Jun-19 11:36 UTC. Time now 2018-Jun-21 16:20 UTC.
Position N 34°25' E 134°22'.

Length 79 m; draft 5.3 m.

Type: Tanker. MMSI: 431602168.

Date/timePositionNaut miles runAvg speedWind from/ knotsBaromVisibWave heightAir tempDewpointWater temp
2018-Jun-19 11:36N 34°25' E 134°22'211.3
2018-Jun-19 11:26N 34°26' E 134°24'510.8
2018-Jun-19 11:00N 34°27' E 134°30'510.5
2018-Jun-19 10:30N 34°29' E 134°36'510.4
2018-Jun-19 10:01N 34°31' E 134°41'610.3
2018-Jun-19 09:26N 34°33' E 134°48'4 9.2
2018-Jun-19 08:57N 34°35' E 134°53'7 8.5
2018-Jun-19 08:06N 34°37' E 135°01'1 8.3
2018-Jun-19 07:59N 34°37' E 135°02'4 9.0
2018-Jun-19 07:30N 34°36' E 135°08'510.8
2018-Jun-19 07:00N 34°36' E 135°14'510.9
2018-Jun-19 06:30N 34°36' E 135°21'4 8.8
2018-Jun-19 06:00N 34°35' E 135°26'0 0.6
2018-Jun-19 05:30N 34°34' E 135°26'0 0.0
2018-Jun-19 05:00N 34°34' E 135°26'0 0.0
2018-Jun-19 04:30N 34°34' E 135°26'0 0.0
2018-Jun-19 03:58N 34°34' E 135°26'0 0.0
2018-Jun-19 03:30N 34°34' E 135°26'0 0.0
2018-Jun-19 03:00N 34°34' E 135°26'0 0.0
2018-Jun-19 02:30N 34°34' E 135°26'0 0.0
2018-Jun-19 02:00N 34°34' E 135°26'0 0.0
2018-Jun-19 01:30N 34°34' E 135°26'0 0.0
2018-Jun-19 01:00N 34°34' E 135°26'0 0.0
2018-Jun-19 00:30N 34°34' E 135°26'0 0.0
2018-Jun-19 00:00N 34°34' E 135°26'3 6.6
2018-Jun-18 23:30N 34°36' E 135°23'612.2
2018-Jun-18 23:00N 34°35' E 135°15'612.1
2018-Jun-18 22:30N 34°35' E 135°08'813.7
2018-Jun-18 21:57N 34°37' E 134°59'714.1
2018-Jun-18 21:28N 34°34' E 134°52'612.7
2018-Jun-18 21:00N 34°32' E 134°45'612.4
2018-Jun-18 20:30N 34°30' E 134°38'612.5
2018-Jun-18 19:59N 34°27' E 134°31'612.6
2018-Jun-18 19:30N 34°25' E 134°24'  
2018-Jun-14 03:28N 35°16' E 139°46'511.0
2018-Jun-14 02:59N 35°20' E 139°42'5 9.7
2018-Jun-14 02:30N 35°24' E 139°40'0 0.4
2018-Jun-14 02:00N 35°24' E 139°40'0 0.0
2018-Jun-14 01:30N 35°24' E 139°40'0 0.0
2018-Jun-14 01:00N 35°24' E 139°40'0 0.0
2018-Jun-14 00:30N 35°24' E 139°40'0 0.0
2018-Jun-14 00:00N 35°24' E 139°40'0 0.0
2018-Jun-13 23:30N 35°24' E 139°40'2 3.7
2018-Jun-13 23:00N 35°23' E 139°41'2 3.8
2018-Jun-13 22:30N 35°22' E 139°43'0 0.0
2018-Jun-13 22:00N 35°22' E 139°43'0 0.0
2018-Jun-13 21:30N 35°22' E 139°43'0 0.0
2018-Jun-13 21:00N 35°22' E 139°43'0 0.0
2018-Jun-13 20:30N 35°22' E 139°43'0 0.0
2018-Jun-13 20:00N 35°22' E 139°43'0 0.0
2018-Jun-13 19:30N 35°22' E 139°43'0 0.0
2018-Jun-13 19:00N 35°22' E 139°43'0 0.1
2018-Jun-13 18:30N 35°22' E 139°43'0 0.0
2018-Jun-13 18:00N 35°22' E 139°43'0 0.0
2018-Jun-13 17:30N 35°22' E 139°43'0 0.0
2018-Jun-13 17:00N 35°22' E 139°43'0 0.0
2018-Jun-13 16:30N 35°22' E 139°43'0 0.0
2018-Jun-13 16:00N 35°22' E 139°43'0 0.0
2018-Jun-13 15:30N 35°22' E 139°43'0 0.0
2018-Jun-13 15:00N 35°22' E 139°43'0 0.0
2018-Jun-13 14:30N 35°22' E 139°43'0 0.0
2018-Jun-13 14:00N 35°22' E 139°43'0 0.1
2018-Jun-13 13:30N 35°22' E 139°43'3 6.8
2018-Jun-13 13:00N 35°19' E 139°44'611.0
2018-Jun-13 12:30N 35°14' E 139°47'611.8
2018-Jun-13 11:58N 35°08' E 139°46'8 0.3
2018-Jun-12 08:52N 35°16' E 139°46'513.0
2018-Jun-12 08:30N 35°20' E 139°43'611.4
2018-Jun-12 08:00N 35°25' E 139°44'611.9
2018-Jun-12 07:30N 35°29' E 139°50'4 6.8
2018-Jun-12 06:58N 35°28' E 139°55'0 0.0
2018-Jun-12 06:30N 35°28' E 139°55'0 0.0
2018-Jun-12 06:00N 35°28' E 139°55'0 0.0
2018-Jun-12 05:28N 35°28' E 139°55'0 0.0
2018-Jun-12 05:00N 35°28' E 139°55'0 0.1
2018-Jun-12 04:11N 35°28' E 139°55'0 0.0
2018-Jun-12 02:56N 35°28' E 139°55'0 0.0
2018-Jun-12 02:29N 35°28' E 139°55'0 0.0
2018-Jun-12 01:52N 35°28' E 139°55'0 0.0
2018-Jun-12 01:30N 35°28' E 139°55'0 0.0
2018-Jun-11 22:29N 35°28' E 139°55'0 0.0
2018-Jun-11 22:00N 35°28' E 139°55'0 0.0
2018-Jun-11 20:25N 35°28' E 139°55'0 0.0
2018-Jun-11 19:53N 35°28' E 139°55'0 0.0
2018-Jun-11 19:18N 35°28' E 139°55'0 0.0
2018-Jun-11 18:55N 35°28' E 139°55'0 0.0
2018-Jun-11 18:23N 35°28' E 139°55'0 0.0
2018-Jun-11 16:58N 35°28' E 139°55'0 0.0
2018-Jun-11 16:28N 35°28' E 139°55'0 0.0
2018-Jun-11 15:55N 35°28' E 139°55'0 0.0
2018-Jun-11 15:25N 35°28' E 139°55'0 0.1
2018-Jun-11 14:41N 35°28' E 139°55'0 0.0
2018-Jun-11 14:30N 35°28' E 139°55'0 0.0
2018-Jun-11 14:00N 35°28' E 139°55'0 0.0
2018-Jun-11 13:30N 35°28' E 139°55'0 0.0
2018-Jun-11 13:00N 35°28' E 139°55'0 0.0
2018-Jun-11 12:30N 35°28' E 139°55'0 0.0
2018-Jun-11 12:00N 35°28' E 139°55'0 0.0
2018-Jun-11 11:30N 35°28' E 139°55'0 0.0
2018-Jun-11 10:58N 35°28' E 139°55'0 0.0
2018-Jun-11 10:29N 35°28' E 139°55'0 0.0
2018-Jun-11 09:54N 35°28' E 139°55'0 0.0
2018-Jun-11 09:29N 35°28' E 139°55'0 0.0
2018-Jun-11 08:57N 35°28' E 139°55'0 0.1
2018-Jun-11 08:06N 35°28' E 139°55'0 0.0
2018-Jun-11 07:55N 35°28' E 139°55'0 0.0
2018-Jun-11 07:21N 35°28' E 139°55'0 0.0
2018-Jun-11 07:00N 35°28' E 139°55'0 0.0
2018-Jun-11 06:30N 35°28' E 139°55'0 0.0
2018-Jun-11 06:00N 35°28' E 139°55'0 0.0
2018-Jun-11 05:28N 35°28' E 139°55'0 0.0
2018-Jun-11 04:44N 35°28' E 139°55'0 0.0
2018-Jun-11 04:30N 35°28' E 139°55'0 0.0
2018-Jun-11 04:00N 35°28' E 139°55'0 0.0
2018-Jun-11 03:30N 35°28' E 139°55'0 0.0
2018-Jun-11 02:59N 35°28' E 139°55'0 0.0
2018-Jun-11 02:27N 35°28' E 139°55'0 0.0
2018-Jun-11 02:00N 35°28' E 139°55'0 0.0
2018-Jun-11 01:29N 35°28' E 139°55'0 0.0
2018-Jun-11 00:59N 35°28' E 139°55'0 0.0
2018-Jun-11 00:28N 35°28' E 139°55'0 0.0
2018-Jun-10 23:59N 35°28' E 139°55'0 0.0
2018-Jun-10 23:29N 35°28' E 139°55'0 0.0
2018-Jun-10 22:58N 35°28' E 139°55'0 0.0
2018-Jun-10 22:29N 35°28' E 139°55'0 0.0
2018-Jun-10 22:00N 35°28' E 139°55'0 0.0
2018-Jun-10 21:22N 35°28' E 139°55'0 0.0
2018-Jun-10 20:58N 35°28' E 139°55'0 0.0
2018-Jun-10 20:30N 35°28' E 139°55'0 0.0
2018-Jun-10 19:59N 35°28' E 139°55'0 0.0
2018-Jun-10 19:30N 35°28' E 139°55'0 0.0
2018-Jun-10 19:00N 35°28' E 139°55'0 0.0
2018-Jun-10 18:23N 35°28' E 139°55'0 0.0
2018-Jun-10 17:58N 35°28' E 139°55'0 0.0
2018-Jun-10 17:30N 35°28' E 139°55'0 0.0
2018-Jun-10 17:00N 35°28' E 139°55'0 0.0
2018-Jun-10 16:30N 35°28' E 139°55'0 0.0
2018-Jun-10 16:00N 35°28' E 139°55'0 0.0
2018-Jun-10 14:00N 35°28' E 139°55'0 0.0
2018-Jun-10 13:30N 35°28' E 139°55'0 0.0
2018-Jun-10 12:10N 35°28' E 139°55'0 0.0
2018-Jun-10 10:37N 35°28' E 139°55'0 0.0
2018-Jun-10 10:27N 35°28' E 139°55'0 0.0
2018-Jun-10 09:59N 35°28' E 139°55'0 0.0
2018-Jun-10 09:30N 35°28' E 139°55'0 0.0
2018-Jun-10 09:00N 35°28' E 139°55'0 0.0
2018-Jun-10 08:28N 35°28' E 139°55'0 0.0
2018-Jun-10 07:13N 35°28' E 139°55'0 0.0
2018-Jun-10 06:55N 35°28' E 139°55'0 0.0
2018-Jun-10 06:30N 35°28' E 139°55'0 0.0
2018-Jun-10 05:58N 35°28' E 139°55'0 0.0
2018-Jun-10 05:30N 35°28' E 139°55'0 0.0
2018-Jun-10 05:00N 35°28' E 139°55'3 3.9
2018-Jun-10 04:16N 35°30' E 139°57'2 0.6
2018-Jun-10 01:05N 35°31' E 139°59'  
Track history (hours):
 
Tides and Currents Weather Stations Pressure Air Temp Water Temp Dewpoint Dewpoint Depression Visibility Wind Speed Wind Dir Waves Ship Positions

Kakushin Maru

Last reported at 2018-Jun-19 11:36 UTC. Time now 2018-Jun-21 16:20 UTC.
Position N 34°25' E 134°22'.

Length 79 m; draft 5.3 m.

Type: Tanker. MMSI: 431602168.

Date/timePositionNaut miles runAvg speedWind from/ knotsBaromVisibWave heightAir tempDewpointWater temp
2018-Jun-19 11:36N 34°25' E 134°22'211.3
2018-Jun-19 11:26N 34°26' E 134°24'510.8
2018-Jun-19 11:00N 34°27' E 134°30'510.5
2018-Jun-19 10:30N 34°29' E 134°36'510.4
2018-Jun-19 10:01N 34°31' E 134°41'610.3
2018-Jun-19 09:26N 34°33' E 134°48'4 9.2
2018-Jun-19 08:57N 34°35' E 134°53'7 8.5
2018-Jun-19 08:06N 34°37' E 135°01'1 8.3
2018-Jun-19 07:59N 34°37' E 135°02'4 9.0
2018-Jun-19 07:30N 34°36' E 135°08'510.8
2018-Jun-19 07:00N 34°36' E 135°14'510.9
2018-Jun-19 06:30N 34°36' E 135°21'4 8.8
2018-Jun-19 06:00N 34°35' E 135°26'0 0.6
2018-Jun-19 05:30N 34°34' E 135°26'0 0.0
2018-Jun-19 05:00N 34°34' E 135°26'0 0.0
2018-Jun-19 04:30N 34°34' E 135°26'0 0.0
2018-Jun-19 03:58N 34°34' E 135°26'0 0.0
2018-Jun-19 03:30N 34°34' E 135°26'0 0.0
2018-Jun-19 03:00N 34°34' E 135°26'0 0.0
2018-Jun-19 02:30N 34°34' E 135°26'0 0.0
2018-Jun-19 02:00N 34°34' E 135°26'0 0.0
2018-Jun-19 01:30N 34°34' E 135°26'0 0.0
2018-Jun-19 01:00N 34°34' E 135°26'0 0.0
2018-Jun-19 00:30N 34°34' E 135°26'0 0.0
2018-Jun-19 00:00N 34°34' E 135°26'3 6.6
2018-Jun-18 23:30N 34°36' E 135°23'612.2
2018-Jun-18 23:00N 34°35' E 135°15'612.1
2018-Jun-18 22:30N 34°35' E 135°08'813.7
2018-Jun-18 21:57N 34°37' E 134°59'714.1
2018-Jun-18 21:28N 34°34' E 134°52'612.7
2018-Jun-18 21:00N 34°32' E 134°45'612.4
2018-Jun-18 20:30N 34°30' E 134°38'612.5
2018-Jun-18 19:59N 34°27' E 134°31'612.6
2018-Jun-18 19:30N 34°25' E 134°24'  
2018-Jun-14 03:28N 35°16' E 139°46'511.0
2018-Jun-14 02:59N 35°20' E 139°42'5 9.7
2018-Jun-14 02:30N 35°24' E 139°40'0 0.4
2018-Jun-14 02:00N 35°24' E 139°40'0 0.0
2018-Jun-14 01:30N 35°24' E 139°40'0 0.0
2018-Jun-14 01:00N 35°24' E 139°40'0 0.0
2018-Jun-14 00:30N 35°24' E 139°40'0 0.0
2018-Jun-14 00:00N 35°24' E 139°40'0 0.0
2018-Jun-13 23:30N 35°24' E 139°40'2 3.7
2018-Jun-13 23:00N 35°23' E 139°41'2 3.8
2018-Jun-13 22:30N 35°22' E 139°43'0 0.0
2018-Jun-13 22:00N 35°22' E 139°43'0 0.0
2018-Jun-13 21:30N 35°22' E 139°43'0 0.0
2018-Jun-13 21:00N 35°22' E 139°43'0 0.0
2018-Jun-13 20:30N 35°22' E 139°43'0 0.0
2018-Jun-13 20:00N 35°22' E 139°43'0 0.0
2018-Jun-13 19:30N 35°22' E 139°43'0 0.0
2018-Jun-13 19:00N 35°22' E 139°43'0 0.1
2018-Jun-13 18:30N 35°22' E 139°43'0 0.0
2018-Jun-13 18:00N 35°22' E 139°43'0 0.0
2018-Jun-13 17:30N 35°22' E 139°43'0 0.0
2018-Jun-13 17:00N 35°22' E 139°43'0 0.0
2018-Jun-13 16:30N 35°22' E 139°43'0 0.0
2018-Jun-13 16:00N 35°22' E 139°43'0 0.0
2018-Jun-13 15:30N 35°22' E 139°43'0 0.0
2018-Jun-13 15:00N 35°22' E 139°43'0 0.0
2018-Jun-13 14:30N 35°22' E 139°43'0 0.0
2018-Jun-13 14:00N 35°22' E 139°43'0 0.1
2018-Jun-13 13:30N 35°22' E 139°43'3 6.8
2018-Jun-13 13:00N 35°19' E 139°44'611.0
2018-Jun-13 12:30N 35°14' E 139°47'611.8
2018-Jun-13 11:58N 35°08' E 139°46'8 0.3
2018-Jun-12 08:52N 35°16' E 139°46'513.0
2018-Jun-12 08:30N 35°20' E 139°43'611.4
2018-Jun-12 08:00N 35°25' E 139°44'611.9
2018-Jun-12 07:30N 35°29' E 139°50'4 6.8
2018-Jun-12 06:58N 35°28' E 139°55'0 0.0
2018-Jun-12 06:30N 35°28' E 139°55'0 0.0
2018-Jun-12 06:00N 35°28' E 139°55'0 0.0
2018-Jun-12 05:28N 35°28' E 139°55'0 0.0
2018-Jun-12 05:00N 35°28' E 139°55'0 0.1
2018-Jun-12 04:11N 35°28' E 139°55'0 0.0
2018-Jun-12 02:56N 35°28' E 139°55'0 0.0
2018-Jun-12 02:29N 35°28' E 139°55'0 0.0
2018-Jun-12 01:52N 35°28' E 139°55'0 0.0
2018-Jun-12 01:30N 35°28' E 139°55'0 0.0
2018-Jun-11 22:29N 35°28' E 139°55'0 0.0
2018-Jun-11 22:00N 35°28' E 139°55'0 0.0
2018-Jun-11 20:25N 35°28' E 139°55'0 0.0
2018-Jun-11 19:53N 35°28' E 139°55'0 0.0
2018-Jun-11 19:18N 35°28' E 139°55'0 0.0
2018-Jun-11 18:55N 35°28' E 139°55'0 0.0
2018-Jun-11 18:23N 35°28' E 139°55'0 0.0
2018-Jun-11 16:58N 35°28' E 139°55'0 0.0
2018-Jun-11 16:28N 35°28' E 139°55'0 0.0
2018-Jun-11 15:55N 35°28' E 139°55'0 0.0
2018-Jun-11 15:25N 35°28' E 139°55'0 0.1
2018-Jun-11 14:41N 35°28' E 139°55'0 0.0
2018-Jun-11 14:30N 35°28' E 139°55'0 0.0
2018-Jun-11 14:00N 35°28' E 139°55'0 0.0
2018-Jun-11 13:30N 35°28' E 139°55'0 0.0
2018-Jun-11 13:00N 35°28' E 139°55'0 0.0
2018-Jun-11 12:30N 35°28' E 139°55'0 0.0
2018-Jun-11 12:00N 35°28' E 139°55'0 0.0
2018-Jun-11 11:30N 35°28' E 139°55'0 0.0
2018-Jun-11 10:58N 35°28' E 139°55'0 0.0
2018-Jun-11 10:29N 35°28' E 139°55'0 0.0
2018-Jun-11 09:54N 35°28' E 139°55'0 0.0
2018-Jun-11 09:29N 35°28' E 139°55'0 0.0
2018-Jun-11 08:57N 35°28' E 139°55'0 0.1
2018-Jun-11 08:06N 35°28' E 139°55'0 0.0
2018-Jun-11 07:55N 35°28' E 139°55'0 0.0
2018-Jun-11 07:21N 35°28' E 139°55'0 0.0
2018-Jun-11 07:00N 35°28' E 139°55'0 0.0
2018-Jun-11 06:30N 35°28' E 139°55'0 0.0
2018-Jun-11 06:00N 35°28' E 139°55'0 0.0
2018-Jun-11 05:28N 35°28' E 139°55'0 0.0
2018-Jun-11 04:44N 35°28' E 139°55'0 0.0
2018-Jun-11 04:30N 35°28' E 139°55'0 0.0
2018-Jun-11 04:00N 35°28' E 139°55'0 0.0
2018-Jun-11 03:30N 35°28' E 139°55'0 0.0
2018-Jun-11 02:59N 35°28' E 139°55'0 0.0
2018-Jun-11 02:27N 35°28' E 139°55'0 0.0
2018-Jun-11 02:00N 35°28' E 139°55'0 0.0
2018-Jun-11 01:29N 35°28' E 139°55'0 0.0
2018-Jun-11 00:59N 35°28' E 139°55'0 0.0
2018-Jun-11 00:28N 35°28' E 139°55'0 0.0
2018-Jun-10 23:59N 35°28' E 139°55'0 0.0
2018-Jun-10 23:29N 35°28' E 139°55'0 0.0
2018-Jun-10 22:58N 35°28' E 139°55'0 0.0
2018-Jun-10 22:29N 35°28' E 139°55'0 0.0
2018-Jun-10 22:00N 35°28' E 139°55'0 0.0
2018-Jun-10 21:22N 35°28' E 139°55'0 0.0
2018-Jun-10 20:58N 35°28' E 139°55'0 0.0
2018-Jun-10 20:30N 35°28' E 139°55'0 0.0
2018-Jun-10 19:59N 35°28' E 139°55'0 0.0
2018-Jun-10 19:30N 35°28' E 139°55'0 0.0
2018-Jun-10 19:00N 35°28' E 139°55'0 0.0
2018-Jun-10 18:23N 35°28' E 139°55'0 0.0
2018-Jun-10 17:58N 35°28' E 139°55'0 0.0
2018-Jun-10 17:30N 35°28' E 139°55'0 0.0
2018-Jun-10 17:00N 35°28' E 139°55'0 0.0
2018-Jun-10 16:30N 35°28' E 139°55'0 0.0
2018-Jun-10 16:00N 35°28' E 139°55'0 0.0
2018-Jun-10 14:00N 35°28' E 139°55'0 0.0
2018-Jun-10 13:30N 35°28' E 139°55'0 0.0
2018-Jun-10 12:10N 35°28' E 139°55'0 0.0
2018-Jun-10 10:37N 35°28' E 139°55'0 0.0
2018-Jun-10 10:27N 35°28' E 139°55'0 0.0
2018-Jun-10 09:59N 35°28' E 139°55'0 0.0
2018-Jun-10 09:30N 35°28' E 139°55'0 0.0
2018-Jun-10 09:00N 35°28' E 139°55'0 0.0
2018-Jun-10 08:28N 35°28' E 139°55'0 0.0
2018-Jun-10 07:13N 35°28' E 139°55'0 0.0
2018-Jun-10 06:55N 35°28' E 139°55'0 0.0
2018-Jun-10 06:30N 35°28' E 139°55'0 0.0
2018-Jun-10 05:58N 35°28' E 139°55'0 0.0
2018-Jun-10 05:30N 35°28' E 139°55'0 0.0
2018-Jun-10 05:00N 35°28' E 139°55'3 3.9
2018-Jun-10 04:16N 35°30' E 139°57'2 0.6
2018-Jun-10 01:05N 35°31' E 139°59'  

Dump ship's entire track history